• Join FlightAware (Why Join?)
  • Login
  • US Flag 
09:04AM EDT


 

Airport Tracker/Info


-or-


 

Live Flight TrackerFlight Track Log ✈ EJA929 ✈ 23-May-2013 ✈ KDAL - KASE

Flight Track Log - Related Links

Times and Time Zones

All times are in EDT time to prevent confusion due to time zone crossing. See the EJA929 flight status page for this flight to view local times or setup timezone preferences in your user account.

Time Position Orientation Groundspeed Altitude Reporting Facility
EDT Latitude Longitude Course Direction KTS MPH feet Rate Location/Type
01:24PM 32.8333 -96.8333 134° Southeast 218 251 1,400  Level Dallas / Fort Worth TRACON
01:25PM 32.7667 -96.7500 134° Southeast 274 315 5,700 2,040 Climbing Dallas / Fort Worth TRACON
01:26PM 32.7000 -96.7500 180° South 265 305 6,600 1,740 Climbing Dallas / Fort Worth TRACON
01:27PM 32.6333 -96.8000 212° Southwest 295 339 9,100 2,160 Climbing Dallas / Fort Worth TRACON
01:28PM 32.6214 -96.8608 257° West 321 369 10,200 1,500 Climbing Fort Worth Center
01:29PM 32.6406 -96.9767 281° West 330 380 11,800 1,500 Climbing Fort Worth Center
01:30PM 32.6972 -97.0678 306° West 335 386 13,300 1,680 Climbing Fort Worth Center
01:31PM 32.7539 -97.1589 307° West 369 425 15,200 2,160 Climbing Fort Worth Center
01:32PM 32.8186 -97.2700 305° West 380 437 17,700 2,280 Climbing Fort Worth Center
01:33PM 32.8856 -97.3836 305° West 375 432 19,800 1,920 Climbing Fort Worth Center
01:34PM 32.9397 -97.4703 307° West 375 432 21,600 1,620 Climbing Fort Worth Center
01:35PM 33.0064 -97.5894 304° West 381 438 23,100 1,380 Climbing Fort Worth Center
01:36PM 33.0647 -97.6886 283° West 393 452 24,400 1,320 Climbing Fort Worth Center
01:37PM 33.1063 -97.7981 283° West  Level FlightAware Approximate
01:37PM 33.1167 -97.8078 298° West 398 458 25,800  Level Fort Worth Center
01:38PM 33.1578 -97.9394 290° West 408 470 27,200 1,260 Climbing Fort Worth Center
01:39PM 33.2053 -98.0839 291° West 421 484 28,400 1,380 Climbing Fort Worth Center
01:40PM 33.2400 -98.2106 288° West 433 498 30,000 1,440 Climbing Fort Worth Center
01:41PM 33.2786 -98.3503 288° West 438 504 31,300 720 Climbing Fort Worth Center
01:42PM 33.3131 -98.4897 287° West 443 510 31,500 300 Climbing Fort Worth Center
01:43PM 33.3386 -98.6467 281° West 455 524 32,000 240 Climbing Fort Worth Center
01:44PM 33.3453 -98.8083 273° West 474 545 32,000 720 Level Fort Worth Center
01:45PM 33.3478 -98.9653 271° West 483 556 33,500 1,500 Climbing Fort Worth Center
01:46PM 33.3853 -99.1150 287° West 483 556 35,000 1,560 Climbing Fort Worth Center
01:47PM 33.4314 -99.2578 291° West 465 535 36,700 1,740 Climbing Fort Worth Center
01:48PM 33.4772 -99.4008 291° West 465 535 38,500 1,440 Climbing Fort Worth Center
01:49PM 33.5250 -99.5389 293° West 460 529 39,600 720 Climbing Fort Worth Center
01:50PM 33.5706 -99.6797 291° West 455 524 40,000 180 Climbing Fort Worth Center
01:51PM 33.6178 -99.8256 291° West 460 529 40,000  Level Fort Worth Center
01:52PM 33.6631 -99.9714 290° West 466 536 40,000  Level Fort Worth Center
01:53PM 33.7100 -100.1153 291° West 466 536 40,000  Level Fort Worth Center
01:54PM 33.7547 -100.2614 290° West 471 542 40,000  Level Fort Worth Center
01:55PM 33.8289 -100.3914 305° West 471 542 40,000  Level Fort Worth Center
01:56PM 33.9375 -100.4778 327° Northwest 459 528 40,000  Level Fort Worth Center
01:57PM 34.0603 -100.5772 326° Northwest 473 544 40,000  Level Fort Worth Center
01:58PM 34.1664 -100.6689 324° Northwest 478 550 40,000  Level Fort Worth Center
02:00PM 34.3417 -100.8192 325° Northwest 474 545 40,000  Level Albuquerque Center
02:01PM 34.4489 -100.9119 324° Northwest 474 545 40,000  Level Albuquerque Center
02:02PM 34.5567 -101.0036 325° Northwest 474 545 40,000  Level Albuquerque Center
02:03PM 34.6847 -101.1153 324° Northwest 473 544 40,000  Level Albuquerque Center
02:04PM 34.7903 -101.2064 325° Northwest 469 540 40,000  Level Albuquerque Center
02:05PM 34.8975 -101.2992 325° Northwest 472 543 40,000  Level Albuquerque Center
02:06PM 34.9967 -101.3881 324° Northwest 471 542 40,000  Level Albuquerque Center
02:07PM 35.1064 -101.4817 325° Northwest 477 549 40,000  Level Albuquerque Center
02:08PM 35.2358 -101.5958 324° Northwest 475 547 40,000  Level Albuquerque Center
02:09PM 35.3456 -101.6931 324° Northwest 473 544 40,000  Level Albuquerque Center
02:10PM 35.4544 -101.7894 324° Northwest 477 549 40,000  Level Albuquerque Center
02:11PM 35.5531 -101.8789 324° Northwest 480 552 40,000  Level Albuquerque Center
02:12PM 35.6831 -101.9950 324° Northwest 482 555 40,000  Level Albuquerque Center
02:13PM 35.7922 -102.0925 324° Northwest 485 558 40,000  Level Albuquerque Center
02:14PM 35.9019 -102.1906 324° Northwest 487 560 40,000  Level Albuquerque Center
02:15PM 36.0122 -102.2906 324° Northwest 490 564 40,000  Level Albuquerque Center
02:16PM 36.1222 -102.3894 324° Northwest 490 564 40,000  Level Albuquerque Center
02:17PM 36.2317 -102.4886 324° Northwest 489 563 40,000  Level Albuquerque Center
02:18PM 36.3411 -102.5886 324° Northwest 489 563 40,000  Level Albuquerque Center
02:19PM 36.4722 -102.7083 324° Northwest 489 563 40,000  Level Albuquerque Center
02:20PM 36.5814 -102.8083 324° Northwest 488 562 40,000  Level Albuquerque Center
02:21PM 36.6947 -102.9147 323° Northwest 494 568 40,000  Level Albuquerque Center
02:22PM 36.8008 -103.0114 324° Northwest 494 568 40,000  Level Albuquerque Center
02:23PM 36.9247 -103.1275 323° Northwest 496 571 40,000  Level Albuquerque Center
02:24PM 37.0311 -103.2258 324° Northwest 496 571 40,000  Level Albuquerque Center
02:25PM 37.1539 -103.3400 323° Northwest 494 568 40,000  Level Albuquerque Center
02:26PM 37.2597 -103.4389 323° Northwest 495 570 40,000 -300 Level Albuquerque Center
02:27PM 37.3631 -103.5717 314° West 482 555 39,400 -720 Descending Albuquerque Center
02:29PM 37.4186 -103.7114 297° West 470 541 38,500 -720 Descending Denver Center
02:30PM 37.4858 -103.8819 296° West 483 556 38,000 -300 Descending Denver Center
02:31PM 37.5389 -104.0219 296° West 491 565 38,000 -480 Level Denver Center
02:32PM 37.6067 -104.1936 297° West 495 570 37,100 -1,380 Descending Denver Center
02:33PM 37.6744 -104.3661 296° West 493 567 35,200 -1,800 Descending Denver Center
02:34PM 37.7308 -104.5108 296° West 484 557 33,500 -1,500 Descending Denver Center
02:35PM 37.7878 -104.6586 296° West 487 560 32,200 -780 Descending Denver Center
02:36PM 37.8572 -104.8378 296° West 505 581 32,000 -120 Descending Denver Center
02:37PM 37.9161 -104.9922 296° West 509 586 32,000  Level Denver Center
02:38PM 37.9858 -105.1731 296° West 511 588 32,000  Level Denver Center
02:39PM 38.0444 -105.3306 295° West 514 592 32,000 -300 Level Denver Center
02:40PM 38.1128 -105.5106 296° West 510 587 31,400 -1,020 Descending Denver Center
02:41PM 38.1661 -105.6581 295° West 488 562 30,000 -1,380 Descending Denver Center
02:42PM 38.2328 -105.8353 296° West 495 570 28,600 -1,020 Descending Denver Center
02:43PM 38.2883 -105.9839 296° West 487 560 28,000 -300 Descending Denver Center
02:44PM 38.3517 -106.1581 295° West 486 559 28,000  Level Denver Center
02:45PM 38.4069 -106.2978 297° West 494 568 28,000  Level Denver Center
02:46PM 38.5214 -106.3972 326° Northwest 503 579 28,000 -480 Level Denver Center
02:47PM 38.6478 -106.4642 338° Northwest 495 570 27,100 -900 Descending Denver Center
02:48PM 38.7575 -106.5228 337° Northwest 416 479 26,200 -960 Descending Denver Center
02:49PM 38.8625 -106.5792 337° Northwest 348 400 25,200 -900 Descending Denver Center
02:50PM 38.9189 -106.6183 332° Northwest 326 375 24,400 -960 Descending Denver Center
02:51PM 38.9411 -106.7442 283° West 305 351 23,300 -1,500 Descending Denver Center
02:52PM 39.0272 -106.6883 27° Northeast 343 395 21,400 -1,860 Descending Denver Center
02:53PM 39.1058 -106.6572 17° North 363 418 19,500 -1,860 Descending Denver Center
02:54PM 39.1883 -106.7100 334° Northwest 337 388 17,700 -1,260 Descending Denver Center
02:56PM 39.2664 -106.7489 339° North 307 353 16,700 -1,140 Descending Denver Center
02:57PM 39.3636 -106.7839 344° North 264 304 15,100 -1,260 Descending Denver Center
02:58PM 39.4011 -106.8511 306° West 256 295 14,100 -1,200 Descending Denver Center
02:59PM 39.4069 -106.9206 276° West 195 224 12,700 -1,320 Descending Denver Center
03:00PM 39.3761 -106.9492 216° Southwest 153 176 11,400 -1,260 Descending Denver Center
03:01PM 39.3339 -106.9419 172° South 156 180 10,100 -1,140 Descending Denver Center
03:02PM 39.2981 -106.9164 151° Southeast 152 175 9,100 -900 Descending Denver Center
03:03PM 39.2589 -106.8814 145° Southeast 155 178 8,300 -780 Descending Denver Center